createdAt,value
2022-12-17T00:00:10.926Z,167.90
2022-12-17T00:02:56.519Z,164.73
2022-12-17T00:05:42.590Z,155.23
2022-12-17T00:08:28.608Z,166.97
2022-12-17T00:11:17.648Z,164.10
2022-12-17T00:14:03.407Z,171.63
2022-12-17T00:16:49.163Z,174.57
2022-12-17T00:19:34.681Z,176.67
2022-12-17T00:22:20.508Z,168.10
2022-12-17T00:25:06.421Z,171.63
2022-12-17T00:27:52.145Z,169.27
2022-12-17T00:30:42.838Z,177.07
2022-12-17T00:33:30.475Z,174.20
2022-12-17T00:36:15.881Z,178.03
2022-12-17T00:39:01.519Z,177.93
2022-12-17T00:41:47.450Z,177.97
2022-12-17T00:44:33.549Z,177.27
2022-12-17T00:47:19.736Z,177.07
2022-12-17T00:50:05.237Z,172.60
2022-12-17T00:52:50.943Z,180.17
2022-12-17T00:55:36.627Z,175.43
2022-12-17T00:58:22.809Z,179.40
2022-12-17T01:01:08.650Z,175.60
2022-12-17T01:03:55.513Z,171.30
2022-12-17T01:06:42.518Z,174.07
2022-12-17T01:09:28.150Z,181.00
2022-12-17T01:12:14.156Z,167.43
2022-12-17T01:15:02.763Z,173.70
2022-12-17T01:17:48.707Z,182.77
2022-12-17T01:20:34.964Z,177.07
2022-12-17T01:23:20.684Z,171.00
2022-12-17T01:26:14.252Z,177.40
2022-12-17T01:29:00.850Z,176.97
2022-12-17T01:31:46.673Z,182.67
2022-12-17T01:34:32.638Z,177.70
2022-12-17T01:37:18.540Z,177.37
2022-12-17T01:40:04.516Z,180.70
2022-12-17T01:42:57.945Z,181.87
2022-12-17T01:45:47.554Z,179.03
2022-12-17T01:48:36.952Z,169.17
2022-12-17T01:51:23.649Z,174.13
2022-12-17T01:54:12.603Z,173.17
2022-12-17T01:57:02.122Z,176.80
2022-12-17T02:00:07.351Z,179.70
2022-12-17T02:02:53.268Z,183.53
2022-12-17T02:05:45.079Z,171.77
2022-12-17T02:08:50.846Z,177.93
2022-12-17T02:12:00.821Z,179.77
2022-12-17T02:15:01.708Z,179.57
2022-12-17T02:17:57.327Z,175.77
2022-12-17T02:21:01.460Z,177.80
2022-12-17T02:24:15.716Z,175.93
2022-12-17T02:27:05.498Z,177.70
2022-12-17T02:29:56.873Z,184.53
2022-12-17T02:32:44.113Z,173.03
2022-12-17T02:35:34.794Z,177.23
2022-12-17T02:38:20.566Z,172.93
2022-12-17T02:41:08.834Z,170.33
2022-12-17T02:43:55.430Z,169.77
2022-12-17T02:46:41.425Z,178.90
2022-12-17T02:49:30.548Z,166.07
2022-12-17T02:52:16.427Z,179.73
2022-12-17T02:55:02.353Z,175.07
2022-12-17T02:57:53.508Z,172.47
2022-12-17T03:00:39.746Z,180.60
2022-12-17T03:03:25.535Z,173.77
2022-12-17T03:06:11.414Z,164.73
2022-12-17T03:08:57.455Z,169.07
2022-12-17T03:11:47.592Z,169.93
2022-12-17T03:14:33.751Z,175.50
2022-12-17T03:17:20.644Z,182.40
2022-12-17T03:20:06.592Z,166.53
2022-12-17T03:22:52.471Z,169.27
2022-12-17T03:25:38.487Z,171.97
2022-12-17T03:28:27.100Z,175.67
2022-12-17T03:31:13.002Z,159.77
2022-12-17T03:34:02.070Z,172.80
2022-12-17T03:36:47.595Z,171.97
2022-12-17T03:39:33.521Z,167.17
2022-12-17T03:42:19.818Z,167.50
2022-12-17T03:45:05.840Z,168.63
2022-12-17T03:47:51.529Z,167.03
2022-12-17T03:50:37.225Z,167.97
2022-12-17T03:53:23.884Z,167.47
2022-12-17T03:56:10.208Z,166.17
2022-12-17T03:59:16.058Z,174.43
2022-12-17T04:02:01.955Z,161.33
2022-12-17T04:04:47.782Z,173.47
2022-12-17T04:07:33.516Z,174.37
2022-12-17T04:10:19.590Z,161.57
2022-12-17T04:13:05.628Z,168.40
2022-12-17T04:15:51.499Z,162.90
2022-12-17T04:18:37.526Z,176.50
2022-12-17T04:21:23.758Z,169.93
2022-12-17T04:24:09.993Z,172.00
2022-12-17T04:26:56.606Z,169.40
2022-12-17T04:29:42.911Z,163.67
2022-12-17T04:32:34.871Z,165.23
2022-12-17T04:35:21.362Z,175.10
2022-12-17T04:38:07.688Z,161.20
2022-12-17T04:40:53.338Z,169.57
2022-12-17T04:43:39.145Z,168.90
2022-12-17T04:46:24.887Z,174.73
2022-12-17T04:49:10.901Z,169.60
2022-12-17T04:51:56.758Z,165.67
2022-12-17T04:54:42.762Z,178.87
2022-12-17T04:57:28.328Z,177.33
2022-12-17T05:00:14.086Z,176.33
2022-12-17T05:03:00.198Z,183.60
2022-12-17T05:05:45.806Z,172.77
2022-12-17T05:08:31.838Z,177.83
2022-12-17T05:11:24.064Z,180.97
2022-12-17T05:14:10.100Z,175.63
2022-12-17T05:16:55.732Z,176.57
2022-12-17T05:19:41.304Z,171.03
2022-12-17T05:22:31.900Z,182.30
2022-12-17T05:25:17.583Z,178.33
2022-12-17T05:28:05.939Z,175.63
2022-12-17T05:30:52.099Z,179.13
2022-12-17T05:33:38.358Z,176.20
2022-12-17T05:36:24.737Z,175.73
2022-12-17T05:39:10.979Z,170.27
2022-12-17T05:41:57.227Z,172.13
2022-12-17T05:44:47.261Z,179.93
2022-12-17T05:47:33.270Z,173.80
2022-12-17T05:50:19.118Z,190.10
2022-12-17T05:53:04.686Z,184.20
2022-12-17T05:55:50.316Z,183.97
2022-12-17T05:58:36.220Z,181.30
2022-12-17T06:01:24.687Z,182.50
2022-12-17T06:04:10.843Z,186.87
2022-12-17T06:06:57.069Z,183.27
2022-12-17T06:09:43.464Z,182.57
2022-12-17T06:12:29.235Z,181.10
2022-12-17T06:15:15.109Z,176.40
2022-12-17T06:18:01.117Z,182.67
2022-12-17T06:20:46.735Z,184.23
2022-12-17T06:23:32.405Z,186.20
2022-12-17T06:26:21.713Z,183.63
2022-12-17T06:29:07.646Z,179.70
2022-12-17T06:31:53.512Z,177.53
2022-12-17T06:34:41.769Z,176.93
2022-12-17T06:37:28.409Z,170.83
2022-12-17T06:40:14.190Z,181.67
2022-12-17T06:43:00.011Z,173.97
2022-12-17T06:45:48.514Z,184.80
2022-12-17T06:48:34.694Z,178.43
2022-12-17T06:51:20.678Z,183.57
2022-12-17T06:54:07.868Z,195.10
2022-12-17T06:56:53.419Z,183.77
2022-12-17T06:59:39.783Z,178.13
2022-12-17T07:02:28.449Z,194.07
2022-12-17T07:05:14.990Z,193.13
2022-12-17T07:08:00.575Z,181.57
2022-12-17T07:10:46.521Z,216.43
2022-12-17T07:13:32.146Z,179.47
2022-12-17T07:16:18.177Z,198.00
2022-12-17T07:19:04.013Z,195.90
2022-12-17T07:21:49.987Z,211.67
2022-12-17T07:24:35.956Z,173.27
2022-12-17T07:27:21.612Z,173.43
2022-12-17T07:30:07.692Z,165.73
2022-12-17T07:32:53.305Z,167.57
2022-12-17T07:35:40.045Z,162.70
2022-12-17T07:38:27.757Z,172.90
2022-12-17T07:41:13.702Z,167.03
2022-12-17T07:43:59.598Z,176.87
2022-12-17T07:46:53.217Z,155.23
2022-12-17T07:49:39.414Z,163.63
2022-12-17T07:52:25.359Z,172.20
2022-12-17T07:55:14.277Z,173.27
2022-12-17T07:58:03.803Z,155.93
2022-12-17T08:00:49.755Z,155.50
2022-12-17T08:03:35.740Z,152.80
2022-12-17T08:06:22.122Z,144.03
2022-12-17T08:09:08.865Z,153.13
2022-12-17T08:11:54.652Z,147.07
2022-12-17T08:14:40.705Z,144.93
2022-12-17T08:17:26.476Z,140.63
2022-12-17T08:20:13.102Z,128.40
2022-12-17T08:22:58.862Z,133.83
2022-12-17T08:25:44.499Z,124.27
2022-12-17T08:31:38.053Z,129.27
2022-12-17T08:34:24.072Z,127.50
2022-12-17T08:37:09.861Z,138.57
2022-12-17T08:39:55.743Z,162.17
2022-12-17T08:42:41.496Z,131.17
2022-12-17T08:45:28.205Z,141.93
2022-12-17T08:48:24.684Z,140.23
2022-12-17T08:51:10.783Z,130.73
2022-12-17T08:53:57.493Z,127.00
2022-12-17T08:56:43.953Z,125.90
2022-12-17T08:59:29.864Z,119.17
2022-12-17T09:02:15.905Z,130.53
2022-12-17T09:05:01.528Z,125.37
2022-12-17T09:07:47.453Z,122.30
2022-12-17T09:10:33.040Z,114.67
2022-12-17T09:13:22.663Z,121.77
2022-12-17T09:16:13.752Z,114.13
2022-12-17T09:19:00.557Z,117.50
2022-12-17T09:21:50.019Z,113.97
2022-12-17T09:24:36.105Z,117.57
2022-12-17T09:27:21.640Z,111.20
2022-12-17T09:30:07.734Z,109.77
2022-12-17T09:32:56.630Z,108.03
2022-12-17T09:35:42.157Z,118.57
2022-12-17T09:38:31.546Z,144.53
2022-12-17T09:41:24.524Z,130.77
2022-12-17T09:44:18.269Z,126.87
2022-12-17T09:47:19.933Z,137.33
2022-12-17T09:50:06.175Z,274.70
2022-12-17T09:52:55.733Z,253.80
2022-12-17T09:55:51.881Z,125.43
2022-12-17T09:58:47.223Z,126.57
2022-12-17T10:01:39.063Z,116.40
2022-12-17T10:04:33.480Z,111.60
2022-12-17T10:07:20.941Z,99.70
2022-12-17T10:10:11.061Z,113.93
2022-12-17T10:12:57.828Z,99.70
2022-12-17T10:15:43.895Z,101.33
2022-12-17T10:18:48.490Z,115.27
2022-12-17T10:21:40.096Z,122.67
2022-12-17T10:24:29.565Z,108.07
2022-12-17T10:27:15.658Z,114.30
2022-12-17T10:30:03.512Z,105.03
2022-12-17T10:32:49.514Z,91.77
2022-12-17T10:35:42.787Z,100.00
2022-12-17T10:38:42.646Z,96.03
2022-12-17T10:41:48.619Z,93.33
2022-12-17T10:44:53.866Z,94.47
2022-12-17T10:47:42.386Z,89.43
2022-12-17T10:50:31.508Z,108.83
2022-12-17T10:53:18.255Z,93.17
2022-12-17T10:56:08.324Z,89.53
2022-12-17T10:58:54.527Z,92.20
2022-12-17T11:01:43.457Z,94.43
2022-12-17T11:04:51.985Z,87.80
2022-12-17T11:07:52.891Z,98.07
2022-12-17T11:10:43.129Z,95.87
2022-12-17T11:13:33.973Z,94.77
2022-12-17T11:16:22.657Z,100.03
2022-12-17T11:19:17.208Z,96.43
2022-12-17T11:22:04.009Z,97.80
2022-12-17T11:25:04.555Z,93.50
2022-12-17T11:27:59.804Z,92.67
2022-12-17T11:30:47.169Z,94.57
2022-12-17T11:33:43.490Z,89.23
2022-12-17T11:36:39.080Z,94.67
2022-12-17T11:39:33.133Z,88.83
2022-12-17T11:42:24.470Z,86.30
2022-12-17T11:45:13.330Z,78.60
2022-12-17T11:48:23.256Z,86.13
2022-12-17T11:51:36.389Z,82.83
2022-12-17T11:54:37.217Z,86.77
2022-12-17T11:57:57.005Z,83.60
2022-12-17T12:01:00.851Z,78.43
2022-12-17T12:03:55.462Z,76.27
2022-12-17T12:07:02.803Z,83.83
2022-12-17T12:10:01.525Z,79.83
2022-12-17T12:13:14.650Z,77.67
2022-12-17T12:16:16.735Z,75.80
2022-12-17T12:19:56.447Z,89.97
2022-12-17T12:22:57.299Z,86.07
2022-12-17T12:26:25.588Z,88.97
2022-12-17T12:29:46.106Z,109.73
2022-12-17T12:33:10.157Z,105.87
2022-12-17T12:35:58.103Z,89.27
2022-12-17T12:39:02.129Z,86.67
2022-12-17T12:42:03.485Z,76.53
2022-12-17T12:45:03.834Z,87.10
2022-12-17T12:48:24.587Z,83.07
2022-12-17T12:51:22.375Z,80.13
2022-12-17T12:54:18.991Z,85.63
2022-12-17T12:57:04.695Z,89.53
2022-12-17T12:59:56.118Z,86.47
2022-12-17T13:02:51.674Z,85.80
2022-12-17T13:05:39.908Z,88.17
2022-12-17T13:08:20.655Z,88.50
2022-12-17T13:10:50.262Z,83.70
2022-12-17T13:13:37.159Z,94.33
2022-12-17T13:16:31.986Z,89.37
2022-12-17T13:19:05.005Z,90.37
2022-12-17T13:21:32.964Z,93.20
2022-12-17T13:24:11.774Z,93.00
2022-12-17T13:26:42.012Z,96.63
2022-12-17T13:29:30.095Z,103.17
2022-12-17T13:32:22.109Z,99.80
2022-12-17T13:35:21.041Z,81.40
2022-12-17T13:38:08.272Z,94.87
2022-12-17T13:41:09.852Z,98.13
2022-12-17T13:43:54.411Z,99.33
2022-12-17T13:46:28.193Z,108.60
2022-12-17T13:48:58.143Z,98.50
2022-12-17T13:51:28.375Z,94.40
2022-12-17T13:54:01.012Z,104.87
2022-12-17T13:56:35.310Z,105.47
2022-12-17T13:59:09.123Z,106.60
2022-12-17T14:01:57.461Z,105.57
2022-12-17T14:04:30.036Z,108.27
2022-12-17T14:07:02.131Z,99.57
2022-12-17T14:09:43.345Z,104.60
2022-12-17T14:12:25.749Z,107.90
2022-12-17T14:14:57.294Z,93.13
2022-12-17T14:17:37.795Z,103.57
2022-12-17T14:20:35.905Z,100.67
2022-12-17T14:23:06.281Z,103.27
2022-12-17T14:25:38.578Z,102.27
2022-12-17T14:28:24.950Z,107.83
2022-12-17T14:31:26.283Z,98.17
2022-12-17T14:34:12.357Z,102.50
2022-12-17T14:36:41.929Z,96.53
2022-12-17T14:39:23.125Z,101.67
2022-12-17T14:42:09.012Z,93.23
2022-12-17T14:44:48.341Z,99.17
2022-12-17T14:47:18.388Z,131.87
2022-12-17T14:50:07.728Z,107.80
2022-12-17T14:52:44.786Z,91.40
2022-12-17T14:55:38.037Z,114.50
2022-12-17T14:58:13.347Z,105.50
2022-12-17T15:00:47.203Z,94.07
2022-12-17T15:03:25.578Z,94.30
2022-12-17T15:05:58.260Z,95.43
2022-12-17T15:08:43.173Z,107.93
2022-12-17T15:11:16.406Z,97.20
2022-12-17T15:13:43.951Z,90.93
2022-12-17T15:16:11.741Z,99.73
2022-12-17T15:18:39.570Z,100.90
2022-12-17T15:21:07.223Z,104.37
2022-12-17T15:23:34.751Z,95.20
2022-12-17T15:26:02.111Z,95.83
2022-12-17T15:28:29.422Z,109.17
2022-12-17T15:30:56.716Z,113.57
2022-12-17T15:33:24.081Z,123.70
2022-12-17T15:35:51.382Z,111.80
2022-12-17T15:38:18.620Z,122.73
2022-12-17T15:40:46.083Z,122.80
2022-12-17T15:43:13.816Z,119.33
2022-12-17T15:45:49.461Z,120.40
2022-12-17T15:48:19.576Z,117.13
2022-12-17T15:50:47.569Z,112.77
2022-12-17T15:53:15.029Z,100.50
2022-12-17T15:55:42.420Z,96.07
2022-12-17T15:58:11.746Z,94.47
2022-12-17T16:00:39.268Z,97.13
2022-12-17T16:03:06.734Z,102.47
2022-12-17T16:05:34.082Z,140.43
2022-12-17T16:08:02.779Z,109.33
2022-12-17T16:10:30.987Z,99.43
2022-12-17T16:12:58.227Z,97.17
2022-12-17T16:15:25.931Z,101.37
2022-12-17T16:17:53.365Z,108.50
2022-12-17T16:20:22.044Z,107.83
2022-12-17T16:22:50.251Z,105.60
2022-12-17T16:25:17.528Z,111.60
2022-12-17T16:27:44.788Z,112.37
2022-12-17T16:30:12.806Z,119.87
2022-12-17T16:32:40.170Z,130.53
2022-12-17T16:35:07.913Z,131.10
2022-12-17T16:37:35.160Z,107.63
2022-12-17T16:40:02.518Z,104.50
2022-12-17T16:42:29.855Z,107.60
2022-12-17T16:44:57.246Z,95.30
2022-12-17T16:47:24.681Z,97.03
2022-12-17T16:49:52.036Z,100.20
2022-12-17T16:52:19.276Z,88.73
2022-12-17T16:54:46.561Z,87.40
2022-12-17T16:57:13.824Z,91.07
2022-12-17T16:59:41.356Z,94.53
2022-12-17T17:02:14.019Z,94.20
2022-12-17T17:04:42.011Z,102.03
2022-12-17T17:07:09.451Z,107.73
2022-12-17T17:09:37.844Z,95.17
2022-12-17T17:12:05.468Z,88.00
2022-12-17T17:14:32.685Z,82.50
2022-12-17T17:17:00.008Z,80.07
2022-12-17T17:19:27.413Z,85.27
2022-12-17T17:21:55.142Z,91.97
2022-12-17T17:24:26.940Z,84.20
2022-12-17T17:26:55.444Z,95.37
2022-12-17T17:29:22.830Z,91.90
2022-12-17T17:34:37.775Z,107.03
2022-12-17T17:37:05.076Z,104.30
2022-12-17T17:39:34.462Z,95.63
2022-12-17T17:42:02.533Z,98.20
2022-12-17T17:44:29.898Z,96.97
2022-12-17T17:46:57.232Z,98.70
2022-12-17T17:49:25.351Z,99.10
2022-12-17T17:52:09.455Z,101.17
2022-12-17T17:54:37.444Z,99.97
2022-12-17T17:57:04.885Z,99.90
2022-12-17T17:59:34.063Z,102.33
2022-12-17T18:02:03.671Z,93.23
2022-12-17T18:04:32.098Z,102.53
2022-12-17T18:09:46.934Z,98.10
2022-12-17T18:12:32.999Z,91.27
2022-12-17T18:15:17.235Z,92.40
2022-12-17T18:17:47.912Z,99.63
2022-12-17T18:20:15.417Z,96.67
2022-12-17T18:22:43.065Z,97.93
2022-12-17T18:25:10.723Z,93.90
2022-12-17T18:27:38.973Z,89.27
2022-12-17T18:30:06.734Z,87.50
2022-12-17T18:32:34.032Z,83.80
2022-12-17T18:35:01.354Z,73.23
2022-12-17T18:37:28.599Z,77.13
2022-12-17T18:39:56.055Z,76.33
2022-12-17T18:42:41.944Z,71.57
2022-12-17T18:45:13.174Z,76.40
2022-12-17T18:47:40.631Z,78.97
2022-12-17T18:50:08.983Z,76.10
2022-12-17T18:52:36.259Z,75.63
2022-12-17T18:55:03.856Z,75.37
2022-12-17T18:57:31.202Z,77.43
2022-12-17T18:59:58.524Z,70.00
2022-12-17T19:02:25.908Z,73.23
2022-12-17T19:04:53.341Z,76.50
2022-12-17T19:07:20.585Z,72.63
2022-12-17T19:09:48.019Z,68.13
2022-12-17T19:12:15.809Z,70.70
2022-12-17T19:14:43.673Z,69.90
2022-12-17T19:17:11.009Z,57.00
2022-12-17T19:19:38.383Z,65.43
2022-12-17T19:22:06.658Z,59.67
2022-12-17T19:24:36.811Z,66.17
2022-12-17T19:27:04.131Z,70.33
2022-12-17T19:29:31.402Z,63.80
2022-12-17T19:31:58.804Z,66.33
2022-12-17T19:34:26.171Z,61.67
2022-12-17T19:36:53.538Z,68.97
2022-12-17T19:39:20.974Z,68.37
2022-12-17T19:41:51.659Z,65.63
2022-12-17T19:44:22.983Z,71.10
2022-12-17T19:46:50.401Z,67.60
2022-12-17T19:49:19.102Z,62.20
2022-12-17T19:51:46.661Z,58.60
2022-12-17T19:54:17.974Z,59.73
2022-12-17T19:56:45.907Z,56.70
2022-12-17T19:59:13.987Z,67.20
2022-12-17T20:01:44.646Z,63.33
2022-12-17T20:04:16.380Z,66.40
2022-12-17T20:06:44.268Z,63.43
2022-12-17T20:09:12.002Z,63.87
2022-12-17T20:11:39.685Z,62.40
2022-12-17T20:14:14.783Z,54.07
2022-12-17T20:16:44.924Z,65.00
2022-12-17T20:19:18.619Z,68.93
2022-12-17T20:21:46.927Z,70.67
2022-12-17T20:24:14.850Z,75.03
2022-12-17T20:26:43.725Z,74.93
2022-12-17T20:29:11.593Z,67.97
2022-12-17T20:31:39.548Z,72.93
2022-12-17T20:34:09.269Z,75.77
2022-12-17T20:36:37.168Z,73.07
2022-12-17T20:39:05.350Z,63.73
2022-12-17T20:41:33.618Z,64.70
2022-12-17T20:44:08.351Z,62.53
2022-12-17T20:46:37.337Z,72.07
2022-12-17T20:49:06.176Z,66.10
2022-12-17T20:51:35.023Z,65.30
2022-12-17T20:54:06.973Z,72.17
2022-12-17T20:56:35.739Z,70.90
2022-12-17T20:59:08.042Z,70.33
2022-12-17T21:01:37.159Z,60.00
2022-12-17T21:04:10.155Z,63.67
2022-12-17T21:06:45.987Z,66.73
2022-12-17T21:09:15.941Z,68.07
2022-12-17T21:11:43.225Z,59.63
2022-12-17T21:14:14.182Z,63.83
2022-12-17T21:16:43.082Z,67.97
2022-12-17T21:19:14.269Z,71.67
2022-12-17T21:21:41.758Z,63.73
2022-12-17T21:24:10.506Z,66.37
2022-12-17T21:26:43.092Z,68.13
2022-12-17T21:29:11.464Z,75.47
2022-12-17T21:31:41.397Z,71.13
2022-12-17T21:34:14.752Z,71.67
2022-12-17T21:36:43.064Z,71.10
2022-12-17T21:39:12.117Z,70.30
2022-12-17T21:41:44.265Z,65.90
2022-12-17T21:44:14.915Z,70.33
2022-12-17T21:46:43.580Z,63.73
2022-12-17T21:49:14.236Z,73.67
2022-12-17T21:51:41.868Z,68.37
2022-12-17T21:54:12.317Z,67.57
2022-12-17T21:56:43.104Z,63.57
2022-12-17T21:59:12.041Z,54.90
2022-12-17T22:01:39.540Z,57.93
2022-12-17T22:04:06.942Z,59.60
2022-12-17T22:06:42.929Z,60.50
2022-12-17T22:09:17.431Z,60.60
2022-12-17T22:12:28.356Z,66.03
2022-12-17T22:14:55.650Z,64.80
2022-12-17T22:17:23.479Z,63.20
2022-12-17T22:19:50.904Z,60.27
2022-12-17T22:22:18.431Z,59.20
2022-12-17T22:24:46.063Z,62.13
2022-12-17T22:27:13.410Z,60.93
2022-12-17T22:29:59.448Z,60.50
2022-12-17T22:32:56.434Z,59.17
2022-12-17T22:36:32.608Z,59.63
2022-12-17T22:40:45.154Z,58.07
2022-12-17T22:44:36.892Z,56.73
2022-12-17T22:44:40.583Z,67.33
2022-12-17T22:46:43.234Z,62.70
2022-12-17T22:49:13.471Z,62.70
2022-12-17T22:51:42.357Z,67.43
2022-12-17T22:54:12.352Z,64.93
2022-12-17T22:57:15.146Z,63.90
2022-12-17T22:59:29.255Z,67.10
2022-12-17T23:01:56.558Z,69.13
2022-12-17T23:04:24.201Z,72.23
2022-12-17T23:06:51.566Z,75.40
2022-12-17T23:09:20.357Z,68.67
2022-12-17T23:11:51.958Z,62.70
2022-12-17T23:14:19.275Z,72.37
2022-12-17T23:16:46.918Z,62.87
2022-12-17T23:19:14.188Z,62.77
2022-12-17T23:21:41.857Z,70.40
2022-12-17T23:24:09.853Z,69.53
2022-12-17T23:26:37.750Z,60.77
2022-12-17T23:29:09.069Z,66.90
2022-12-17T23:31:40.579Z,68.33
2022-12-17T23:34:08.862Z,69.70
2022-12-17T23:36:37.773Z,66.03
2022-12-17T23:39:05.979Z,62.87
2022-12-17T23:41:33.768Z,66.17
2022-12-17T23:44:01.451Z,60.57
2022-12-17T23:46:30.378Z,71.07
2022-12-17T23:48:57.919Z,64.60
2022-12-17T23:51:25.749Z,61.27
2022-12-17T23:53:53.323Z,63.53
2022-12-17T23:56:23.486Z,65.57
2022-12-17T23:58:54.197Z,72.77
